sensor_id;sensor_type;location;lat;lon;timestamp;temperature;humidity
63897;DHT22;50063;52.084;5.414;2022-08-14T00:01:03;21.90;75.10
63897;DHT22;50063;52.084;5.414;2022-08-14T00:03:37;21.90;76.00
63897;DHT22;50063;52.084;5.414;2022-08-14T00:06:06;21.90;75.50
63897;DHT22;50063;52.084;5.414;2022-08-14T00:08:51;21.80;75.60
63897;DHT22;50063;52.084;5.414;2022-08-14T00:11:18;21.70;75.50
63897;DHT22;50063;52.084;5.414;2022-08-14T00:13:45;21.70;75.40
63897;DHT22;50063;52.084;5.414;2022-08-14T00:16:19;21.70;75.70
63897;DHT22;50063;52.084;5.414;2022-08-14T00:19:05;21.60;75.70
63897;DHT22;50063;52.084;5.414;2022-08-14T00:21:49;21.60;76.30
63897;DHT22;50063;52.084;5.414;2022-08-14T00:24:17;21.50;76.20
63897;DHT22;50063;52.084;5.414;2022-08-14T00:26:54;21.50;76.50
63897;DHT22;50063;52.084;5.414;2022-08-14T00:29:20;21.40;76.60
63897;DHT22;50063;52.084;5.414;2022-08-14T00:31:51;21.40;76.70
63897;DHT22;50063;52.084;5.414;2022-08-14T00:34:21;21.40;77.10
63897;DHT22;50063;52.084;5.414;2022-08-14T00:37:08;21.30;77.30
63897;DHT22;50063;52.084;5.414;2022-08-14T00:39:35;21.30;77.30
63897;DHT22;50063;52.084;5.414;2022-08-14T00:42:02;21.20;77.50
63897;DHT22;50063;52.084;5.414;2022-08-14T00:44:29;21.20;77.50
63897;DHT22;50063;52.084;5.414;2022-08-14T00:47:02;21.20;77.80
63897;DHT22;50063;52.084;5.414;2022-08-14T00:49:29;21.10;77.70
63897;DHT22;50063;52.084;5.414;2022-08-14T00:52:10;21.10;77.90
63897;DHT22;50063;52.084;5.414;2022-08-14T00:54:40;21.10;78.40
63897;DHT22;50063;52.084;5.414;2022-08-14T00:57:06;21.00;78.40
63897;DHT22;50063;52.084;5.414;2022-08-14T00:59:34;21.00;78.40
63897;DHT22;50063;52.084;5.414;2022-08-14T01:02:01;21.00;78.70
63897;DHT22;50063;52.084;5.414;2022-08-14T01:04:29;20.90;78.70
63897;DHT22;50063;52.084;5.414;2022-08-14T01:07:18;20.90;78.80
63897;DHT22;50063;52.084;5.414;2022-08-14T01:09:48;20.90;78.80
63897;DHT22;50063;52.084;5.414;2022-08-14T01:12:17;20.80;79.30
63897;DHT22;50063;52.084;5.414;2022-08-14T01:14:59;20.80;79.30
63897;DHT22;50063;52.084;5.414;2022-08-14T01:17:28;20.80;79.80
63897;DHT22;50063;52.084;5.414;2022-08-14T01:20:18;20.70;78.90
63897;DHT22;50063;52.084;5.414;2022-08-14T01:23:09;20.70;79.10
63897;DHT22;50063;52.084;5.414;2022-08-14T01:25:44;20.70;79.50
63897;DHT22;50063;52.084;5.414;2022-08-14T01:28:11;20.60;79.40
63897;DHT22;50063;52.084;5.414;2022-08-14T01:30:58;20.60;79.80
63897;DHT22;50063;52.084;5.414;2022-08-14T01:33:26;20.60;79.60
63897;DHT22;50063;52.084;5.414;2022-08-14T01:35:58;20.50;79.60
63897;DHT22;50063;52.084;5.414;2022-08-14T01:38:31;20.50;79.90
63897;DHT22;50063;52.084;5.414;2022-08-14T01:41:04;20.50;80.30
63897;DHT22;50063;52.084;5.414;2022-08-14T01:43:50;20.50;80.50
63897;DHT22;50063;52.084;5.414;2022-08-14T01:46:23;20.40;80.30
63897;DHT22;50063;52.084;5.414;2022-08-14T01:48:50;20.40;80.50
63897;DHT22;50063;52.084;5.414;2022-08-14T01:51:19;20.30;80.50
63897;DHT22;50063;52.084;5.414;2022-08-14T01:53:50;20.30;80.70
63897;DHT22;50063;52.084;5.414;2022-08-14T01:56:26;20.30;80.90
63897;DHT22;50063;52.084;5.414;2022-08-14T01:59:28;20.30;81.00
63897;DHT22;50063;52.084;5.414;2022-08-14T02:02:04;20.30;81.40
63897;DHT22;50063;52.084;5.414;2022-08-14T02:04:46;20.30;81.40
63897;DHT22;50063;52.084;5.414;2022-08-14T02:07:23;20.20;81.30
63897;DHT22;50063;52.084;5.414;2022-08-14T02:10:10;20.20;81.50
63897;DHT22;50063;52.084;5.414;2022-08-14T02:12:41;20.20;81.80
63897;DHT22;50063;52.084;5.414;2022-08-14T02:15:08;20.10;81.70
63897;DHT22;50063;52.084;5.414;2022-08-14T02:17:35;20.10;81.90
63897;DHT22;50063;52.084;5.414;2022-08-14T02:20:03;20.10;82.00
63897;DHT22;50063;52.084;5.414;2022-08-14T02:22:30;20.10;82.00
63897;DHT22;50063;52.084;5.414;2022-08-14T02:24:59;20.00;82.30
63897;DHT22;50063;52.084;5.414;2022-08-14T02:27:26;20.00;81.70
63897;DHT22;50063;52.084;5.414;2022-08-14T02:30:14;20.00;81.80
63897;DHT22;50063;52.084;5.414;2022-08-14T02:32:42;19.90;82.40
63897;DHT22;50063;52.084;5.414;2022-08-14T02:35:10;19.90;82.70
63897;DHT22;50063;52.084;5.414;2022-08-14T02:37:45;19.90;82.70
63897;DHT22;50063;52.084;5.414;2022-08-14T02:40:16;19.90;83.00
63897;DHT22;50063;52.084;5.414;2022-08-14T02:42:43;19.80;83.20
63897;DHT22;50063;52.084;5.414;2022-08-14T02:45:24;19.80;83.00
63897;DHT22;50063;52.084;5.414;2022-08-14T02:48:03;19.80;83.10
63897;DHT22;50063;52.084;5.414;2022-08-14T02:50:53;19.80;83.50
63897;DHT22;50063;52.084;5.414;2022-08-14T02:53:19;19.80;83.30
63897;DHT22;50063;52.084;5.414;2022-08-14T02:55:46;19.80;83.70
63897;DHT22;50063;52.084;5.414;2022-08-14T02:58:12;19.80;83.80
63897;DHT22;50063;52.084;5.414;2022-08-14T03:00:55;19.70;83.90
63897;DHT22;50063;52.084;5.414;2022-08-14T03:03:26;19.70;83.80
63897;DHT22;50063;52.084;5.414;2022-08-14T03:05:52;19.60;84.10
63897;DHT22;50063;52.084;5.414;2022-08-14T03:08:21;19.60;85.00
63897;DHT22;50063;52.084;5.414;2022-08-14T03:10:47;19.60;84.30
63897;DHT22;50063;52.084;5.414;2022-08-14T03:13:18;19.60;84.60
63897;DHT22;50063;52.084;5.414;2022-08-14T03:15:48;19.50;85.00
63897;DHT22;50063;52.084;5.414;2022-08-14T03:18:22;19.50;84.70
63897;DHT22;50063;52.084;5.414;2022-08-14T03:21:05;19.50;85.40
63897;DHT22;50063;52.084;5.414;2022-08-14T03:23:33;19.50;84.80
63897;DHT22;50063;52.084;5.414;2022-08-14T03:26:05;19.50;85.30
63897;DHT22;50063;52.084;5.414;2022-08-14T03:28:45;19.50;85.10
63897;DHT22;50063;52.084;5.414;2022-08-14T03:31:12;19.40;85.60
63897;DHT22;50063;52.084;5.414;2022-08-14T03:33:39;19.40;85.50
63897;DHT22;50063;52.084;5.414;2022-08-14T03:36:07;19.40;85.70
63897;DHT22;50063;52.084;5.414;2022-08-14T03:38:55;19.40;85.70
63897;DHT22;50063;52.084;5.414;2022-08-14T03:41:43;19.30;85.80
63897;DHT22;50063;52.084;5.414;2022-08-14T03:44:10;19.30;86.20
63897;DHT22;50063;52.084;5.414;2022-08-14T03:46:57;19.30;86.20
63897;DHT22;50063;52.084;5.414;2022-08-14T03:49:23;19.20;86.10
63897;DHT22;50063;52.084;5.414;2022-08-14T03:51:58;19.20;86.50
63897;DHT22;50063;52.084;5.414;2022-08-14T03:54:26;19.20;86.30
63897;DHT22;50063;52.084;5.414;2022-08-14T03:56:53;19.20;86.80
63897;DHT22;50063;52.084;5.414;2022-08-14T03:59:20;19.10;86.90
63897;DHT22;50063;52.084;5.414;2022-08-14T04:01:47;19.10;87.50
63897;DHT22;50063;52.084;5.414;2022-08-14T04:04:30;19.10;87.40
63897;DHT22;50063;52.084;5.414;2022-08-14T04:06:58;19.10;88.00
63897;DHT22;50063;52.084;5.414;2022-08-14T04:09:26;19.10;87.90
63897;DHT22;50063;52.084;5.414;2022-08-14T04:11:53;19.00;88.10
63897;DHT22;50063;52.084;5.414;2022-08-14T04:14:21;19.00;87.80
63897;DHT22;50063;52.084;5.414;2022-08-14T04:16:49;19.00;88.60
63897;DHT22;50063;52.084;5.414;2022-08-14T04:19:16;19.00;88.50
63897;DHT22;50063;52.084;5.414;2022-08-14T04:21:46;19.00;88.50
63897;DHT22;50063;52.084;5.414;2022-08-14T04:24:30;19.00;88.50
63897;DHT22;50063;52.084;5.414;2022-08-14T04:27:08;19.00;89.00
63897;DHT22;50063;52.084;5.414;2022-08-14T04:29:39;18.90;88.70
63897;DHT22;50063;52.084;5.414;2022-08-14T04:32:10;18.90;89.10
63897;DHT22;50063;52.084;5.414;2022-08-14T04:34:57;18.90;89.60
63897;DHT22;50063;52.084;5.414;2022-08-14T04:37:24;18.90;89.80
63897;DHT22;50063;52.084;5.414;2022-08-14T04:40:11;18.90;90.00
63897;DHT22;50063;52.084;5.414;2022-08-14T04:42:56;18.90;90.20
63897;DHT22;50063;52.084;5.414;2022-08-14T04:45:43;18.80;90.20
63897;DHT22;50063;52.084;5.414;2022-08-14T04:48:10;18.80;90.30
63897;DHT22;50063;52.084;5.414;2022-08-14T04:51:00;18.80;90.30
63897;DHT22;50063;52.084;5.414;2022-08-14T04:53:29;18.80;90.30
63897;DHT22;50063;52.084;5.414;2022-08-14T04:56:01;18.80;90.40
63897;DHT22;50063;52.084;5.414;2022-08-14T04:58:29;18.80;90.50
63897;DHT22;50063;52.084;5.414;2022-08-14T05:00:59;18.80;90.50
63897;DHT22;50063;52.084;5.414;2022-08-14T05:03:27;18.80;90.60
63897;DHT22;50063;52.084;5.414;2022-08-14T05:05:55;18.90;90.70
63897;DHT22;50063;52.084;5.414;2022-08-14T05:08:22;18.90;90.60
63897;DHT22;50063;52.084;5.414;2022-08-14T05:11:09;18.90;90.80
63897;DHT22;50063;52.084;5.414;2022-08-14T05:13:38;18.90;90.90
63897;DHT22;50063;52.084;5.414;2022-08-14T05:16:25;18.90;90.80
63897;DHT22;50063;52.084;5.414;2022-08-14T05:18:54;18.90;90.80
63897;DHT22;50063;52.084;5.414;2022-08-14T05:21:41;18.90;91.00
63897;DHT22;50063;52.084;5.414;2022-08-14T05:24:28;18.90;91.00
63897;DHT22;50063;52.084;5.414;2022-08-14T05:26:54;18.90;91.20
63897;DHT22;50063;52.084;5.414;2022-08-14T05:29:22;19.00;91.20
63897;DHT22;50063;52.084;5.414;2022-08-14T05:31:48;19.00;91.00
63897;DHT22;50063;52.084;5.414;2022-08-14T05:34:21;19.00;91.10
63897;DHT22;50063;52.084;5.414;2022-08-14T05:36:54;19.00;91.20
63897;DHT22;50063;52.084;5.414;2022-08-14T05:39:28;19.00;91.40
63897;DHT22;50063;52.084;5.414;2022-08-14T05:41:56;19.00;91.30
63897;DHT22;50063;52.084;5.414;2022-08-14T05:44:23;19.10;91.40
63897;DHT22;50063;52.084;5.414;2022-08-14T05:46:55;19.10;91.20
63897;DHT22;50063;52.084;5.414;2022-08-14T05:49:22;19.10;91.40
63897;DHT22;50063;52.084;5.414;2022-08-14T05:51:59;19.20;91.70
63897;DHT22;50063;52.084;5.414;2022-08-14T05:54:27;19.20;91.60
63897;DHT22;50063;52.084;5.414;2022-08-14T05:57:02;19.20;91.70
63897;DHT22;50063;52.084;5.414;2022-08-14T05:59:29;19.20;91.30
63897;DHT22;50063;52.084;5.414;2022-08-14T06:02:05;19.20;91.70
63897;DHT22;50063;52.084;5.414;2022-08-14T06:04:31;19.30;91.60
63897;DHT22;50063;52.084;5.414;2022-08-14T06:06:58;19.40;91.30
63897;DHT22;50063;52.084;5.414;2022-08-14T06:09:25;19.40;91.40
63897;DHT22;50063;52.084;5.414;2022-08-14T06:11:51;19.50;91.60
63897;DHT22;50063;52.084;5.414;2022-08-14T06:14:19;19.60;92.20
63897;DHT22;50063;52.084;5.414;2022-08-14T06:16:49;19.60;91.40
63897;DHT22;50063;52.084;5.414;2022-08-14T06:19:19;19.60;91.50
63897;DHT22;50063;52.084;5.414;2022-08-14T06:21:48;19.70;91.90
63897;DHT22;50063;52.084;5.414;2022-08-14T06:24:23;19.80;91.90
63897;DHT22;50063;52.084;5.414;2022-08-14T06:26:51;19.80;91.40
63897;DHT22;50063;52.084;5.414;2022-08-14T06:29:29;19.90;91.40
63897;DHT22;50063;52.084;5.414;2022-08-14T06:31:57;20.00;91.80
63897;DHT22;50063;52.084;5.414;2022-08-14T06:34:25;20.10;91.80
63897;DHT22;50063;52.084;5.414;2022-08-14T06:37:12;20.30;92.40
63897;DHT22;50063;52.084;5.414;2022-08-14T06:39:42;20.40;92.70
63897;DHT22;50063;52.084;5.414;2022-08-14T06:42:10;20.40;91.90
63897;DHT22;50063;52.084;5.414;2022-08-14T06:44:57;20.60;95.40
63897;DHT22;50063;52.084;5.414;2022-08-14T06:47:24;20.60;93.10
63897;DHT22;50063;52.084;5.414;2022-08-14T06:49:51;20.70;92.40
63897;DHT22;50063;52.084;5.414;2022-08-14T06:52:23;20.90;94.60
63897;DHT22;50063;52.084;5.414;2022-08-14T06:54:50;21.10;94.10
63897;DHT22;50063;52.084;5.414;2022-08-14T06:57:17;21.20;93.50
63897;DHT22;50063;52.084;5.414;2022-08-14T06:59:43;21.30;93.60
63897;DHT22;50063;52.084;5.414;2022-08-14T07:02:10;21.40;93.80
63897;DHT22;50063;52.084;5.414;2022-08-14T07:04:55;21.40;93.60
63897;DHT22;50063;52.084;5.414;2022-08-14T07:07:49;21.50;94.00
63897;DHT22;50063;52.084;5.414;2022-08-14T07:10:16;21.70;94.30
63897;DHT22;50063;52.084;5.414;2022-08-14T07:12:43;21.80;94.40
63897;DHT22;50063;52.084;5.414;2022-08-14T07:15:30;21.90;94.30
63897;DHT22;50063;52.084;5.414;2022-08-14T07:17:58;22.00;94.00
63897;DHT22;50063;52.084;5.414;2022-08-14T07:20:25;22.10;94.40
63897;DHT22;50063;52.084;5.414;2022-08-14T07:22:58;22.20;94.40
63897;DHT22;50063;52.084;5.414;2022-08-14T07:25:33;22.40;94.10
63897;DHT22;50063;52.084;5.414;2022-08-14T07:28:13;22.40;94.10
63897;DHT22;50063;52.084;5.414;2022-08-14T07:30:46;22.50;93.80
63897;DHT22;50063;52.084;5.414;2022-08-14T07:33:17;22.60;94.80
63897;DHT22;50063;52.084;5.414;2022-08-14T07:35:50;22.70;94.10
63897;DHT22;50063;52.084;5.414;2022-08-14T07:38:24;22.80;94.30
63897;DHT22;50063;52.084;5.414;2022-08-14T07:41:01;22.90;94.40
63897;DHT22;50063;52.084;5.414;2022-08-14T07:43:27;23.00;94.70
63897;DHT22;50063;52.084;5.414;2022-08-14T07:45:55;23.10;94.40
63897;DHT22;50063;52.084;5.414;2022-08-14T07:48:22;23.20;94.10
63897;DHT22;50063;52.084;5.414;2022-08-14T07:50:51;23.30;93.80
63897;DHT22;50063;52.084;5.414;2022-08-14T07:53:20;23.30;93.60
63897;DHT22;50063;52.084;5.414;2022-08-14T07:55:48;23.40;93.80
63897;DHT22;50063;52.084;5.414;2022-08-14T07:58:34;23.50;93.40
63897;DHT22;50063;52.084;5.414;2022-08-14T08:01:16;23.60;93.40
63897;DHT22;50063;52.084;5.414;2022-08-14T08:03:45;23.70;93.50
63897;DHT22;50063;52.084;5.414;2022-08-14T08:06:25;23.90;93.60
63897;DHT22;50063;52.084;5.414;2022-08-14T08:08:53;24.00;93.70
63897;DHT22;50063;52.084;5.414;2022-08-14T08:11:31;24.10;93.40
63897;DHT22;50063;52.084;5.414;2022-08-14T08:14:03;24.30;93.20
63897;DHT22;50063;52.084;5.414;2022-08-14T08:16:44;24.40;93.30
63897;DHT22;50063;52.084;5.414;2022-08-14T08:19:11;24.50;93.10
63897;DHT22;50063;52.084;5.414;2022-08-14T08:21:39;24.60;92.80
63897;DHT22;50063;52.084;5.414;2022-08-14T08:24:09;24.70;92.80
63897;DHT22;50063;52.084;5.414;2022-08-14T08:26:37;24.90;92.70
63897;DHT22;50063;52.084;5.414;2022-08-14T08:29:05;25.10;92.40
63897;DHT22;50063;52.084;5.414;2022-08-14T08:31:32;25.20;92.20
63897;DHT22;50063;52.084;5.414;2022-08-14T08:34:02;25.30;92.10
63897;DHT22;50063;52.084;5.414;2022-08-14T08:36:38;25.40;91.90
63897;DHT22;50063;52.084;5.414;2022-08-14T08:39:04;25.60;91.80
63897;DHT22;50063;52.084;5.414;2022-08-14T08:41:47;25.70;91.80
63897;DHT22;50063;52.084;5.414;2022-08-14T08:44:19;25.80;91.60
63897;DHT22;50063;52.084;5.414;2022-08-14T08:46:59;26.00;91.70
63897;DHT22;50063;52.084;5.414;2022-08-14T08:49:35;26.20;91.60
63897;DHT22;50063;52.084;5.414;2022-08-14T08:52:14;26.30;91.40
63897;DHT22;50063;52.084;5.414;2022-08-14T08:54:56;26.40;91.10
63897;DHT22;50063;52.084;5.414;2022-08-14T08:57:24;26.50;91.00
63897;DHT22;50063;52.084;5.414;2022-08-14T08:59:50;26.70;90.90
63897;DHT22;50063;52.084;5.414;2022-08-14T09:02:24;26.70;90.80
63897;DHT22;50063;52.084;5.414;2022-08-14T09:04:51;26.80;91.00
63897;DHT22;50063;52.084;5.414;2022-08-14T09:07:26;26.90;90.70
63897;DHT22;50063;52.084;5.414;2022-08-14T09:09:53;27.00;90.50
63897;DHT22;50063;52.084;5.414;2022-08-14T09:12:28;27.10;90.50
63897;DHT22;50063;52.084;5.414;2022-08-14T09:15:03;27.10;90.10
63897;DHT22;50063;52.084;5.414;2022-08-14T09:17:38;27.20;89.60
63897;DHT22;50063;52.084;5.414;2022-08-14T09:20:07;27.30;90.00
63897;DHT22;50063;52.084;5.414;2022-08-14T09:22:38;27.40;89.60
63897;DHT22;50063;52.084;5.414;2022-08-14T09:25:14;27.50;90.10
63897;DHT22;50063;52.084;5.414;2022-08-14T09:27:40;27.60;88.90
63897;DHT22;50063;52.084;5.414;2022-08-14T09:30:07;27.70;89.00
63897;DHT22;50063;52.084;5.414;2022-08-14T09:32:59;27.80;88.60
63897;DHT22;50063;52.084;5.414;2022-08-14T09:35:42;27.80;88.10
63897;DHT22;50063;52.084;5.414;2022-08-14T09:38:18;27.90;87.70
63897;DHT22;50063;52.084;5.414;2022-08-14T09:43:42;28.10;87.10
63897;DHT22;50063;52.084;5.414;2022-08-14T09:46:14;28.20;90.20
63897;DHT22;50063;52.084;5.414;2022-08-14T09:48:56;28.30;87.60
63897;DHT22;50063;52.084;5.414;2022-08-14T09:51:23;28.40;86.00
63897;DHT22;50063;52.084;5.414;2022-08-14T09:53:59;28.50;85.30
63897;DHT22;50063;52.084;5.414;2022-08-14T09:56:47;28.50;84.20
63897;DHT22;50063;52.084;5.414;2022-08-14T09:59:22;28.60;84.20
63897;DHT22;50063;52.084;5.414;2022-08-14T10:01:50;28.70;84.80
63897;DHT22;50063;52.084;5.414;2022-08-14T10:04:22;28.70;85.10
63897;DHT22;50063;52.084;5.414;2022-08-14T10:07:05;28.90;85.60
63897;DHT22;50063;52.084;5.414;2022-08-14T10:09:44;28.90;83.90
63897;DHT22;50063;52.084;5.414;2022-08-14T10:12:38;29.00;83.40
63897;DHT22;50063;52.084;5.414;2022-08-14T10:15:14;29.00;83.80
63897;DHT22;50063;52.084;5.414;2022-08-14T10:17:41;29.20;82.90
63897;DHT22;50063;52.084;5.414;2022-08-14T10:20:11;29.20;80.90
63897;DHT22;50063;52.084;5.414;2022-08-14T10:23:11;29.20;80.90
63897;DHT22;50063;52.084;5.414;2022-08-14T10:25:49;29.30;81.60
63897;DHT22;50063;52.084;5.414;2022-08-14T10:28:18;29.40;82.30
63897;DHT22;50063;52.084;5.414;2022-08-14T10:31:14;29.50;82.00
63897;DHT22;50063;52.084;5.414;2022-08-14T10:33:41;29.60;81.90
63897;DHT22;50063;52.084;5.414;2022-08-14T10:36:07;29.70;80.30
63897;DHT22;50063;52.084;5.414;2022-08-14T10:38:54;29.60;79.80
63897;DHT22;50063;52.084;5.414;2022-08-14T10:41:32;29.70;79.50
63897;DHT22;50063;52.084;5.414;2022-08-14T10:44:13;29.80;80.50
63897;DHT22;50063;52.084;5.414;2022-08-14T10:46:51;29.80;79.20
63897;DHT22;50063;52.084;5.414;2022-08-14T10:49:38;29.90;79.30
63897;DHT22;50063;52.084;5.414;2022-08-14T10:52:09;29.80;79.60
63897;DHT22;50063;52.084;5.414;2022-08-14T10:59:43;30.00;77.30
63897;DHT22;50063;52.084;5.414;2022-08-14T11:02:55;30.00;77.30
63897;DHT22;50063;52.084;5.414;2022-08-14T11:05:20;30.00;76.80
63897;DHT22;50063;52.084;5.414;2022-08-14T11:10:23;30.10;77.50
63897;DHT22;50063;52.084;5.414;2022-08-14T11:12:54;30.20;76.80
63897;DHT22;50063;52.084;5.414;2022-08-14T11:15:23;30.10;76.10
63897;DHT22;50063;52.084;5.414;2022-08-14T11:17:50;30.20;76.10
63897;DHT22;50063;52.084;5.414;2022-08-14T11:20:21;30.20;77.00
63897;DHT22;50063;52.084;5.414;2022-08-14T11:22:50;30.30;77.00
63897;DHT22;50063;52.084;5.414;2022-08-14T11:25:25;30.30;75.80
63897;DHT22;50063;52.084;5.414;2022-08-14T11:28:10;30.30;74.90
63897;DHT22;50063;52.084;5.414;2022-08-14T11:30:44;30.40;73.90
63897;DHT22;50063;52.084;5.414;2022-08-14T11:33:25;30.40;74.40
63897;DHT22;50063;52.084;5.414;2022-08-14T11:35:59;30.50;75.70
63897;DHT22;50063;52.084;5.414;2022-08-14T11:38:27;30.50;74.60
63897;DHT22;50063;52.084;5.414;2022-08-14T11:41:03;30.50;74.30
63897;DHT22;50063;52.084;5.414;2022-08-14T11:43:43;30.60;75.00
63897;DHT22;50063;52.084;5.414;2022-08-14T11:46:21;30.60;74.70
63897;DHT22;50063;52.084;5.414;2022-08-14T11:49:03;30.70;75.90
63897;DHT22;50063;52.084;5.414;2022-08-14T11:51:31;30.80;76.10
63897;DHT22;50063;52.084;5.414;2022-08-14T11:54:17;30.80;72.80
63897;DHT22;50063;52.084;5.414;2022-08-14T11:56:45;30.80;72.40
63897;DHT22;50063;52.084;5.414;2022-08-14T11:59:16;30.80;70.80
63897;DHT22;50063;52.084;5.414;2022-08-14T12:01:43;30.90;71.80
63897;DHT22;50063;52.084;5.414;2022-08-14T12:04:15;30.80;71.00
63897;DHT22;50063;52.084;5.414;2022-08-14T12:06:59;30.80;71.00
63897;DHT22;50063;52.084;5.414;2022-08-14T12:09:30;30.80;69.90
63897;DHT22;50063;52.084;5.414;2022-08-14T12:11:57;30.80;71.30
63897;DHT22;50063;52.084;5.414;2022-08-14T12:14:24;30.80;71.20
63897;DHT22;50063;52.084;5.414;2022-08-14T12:19:27;30.60;69.30
63897;DHT22;50063;52.084;5.414;2022-08-14T12:21:59;30.60;70.40
63897;DHT22;50063;52.084;5.414;2022-08-14T12:24:26;30.60;69.50
63897;DHT22;50063;52.084;5.414;2022-08-14T12:27:02;30.60;70.20
63897;DHT22;50063;52.084;5.414;2022-08-14T12:29:29;30.70;71.00
63897;DHT22;50063;52.084;5.414;2022-08-14T12:32:01;30.80;71.60
63897;DHT22;50063;52.084;5.414;2022-08-14T12:34:30;30.90;69.40
63897;DHT22;50063;52.084;5.414;2022-08-14T12:37:04;30.90;69.00
63897;DHT22;50063;52.084;5.414;2022-08-14T12:39:31;31.00;69.60
63897;DHT22;50063;52.084;5.414;2022-08-14T12:42:06;31.00;68.50
63897;DHT22;50063;52.084;5.414;2022-08-14T12:44:36;31.10;70.10
63897;DHT22;50063;52.084;5.414;2022-08-14T12:47:05;31.20;71.20
63897;DHT22;50063;52.084;5.414;2022-08-14T12:49:32;31.30;69.70
63897;DHT22;50063;52.084;5.414;2022-08-14T12:52:00;31.40;70.20
63897;DHT22;50063;52.084;5.414;2022-08-14T12:54:27;31.50;69.90
63897;DHT22;50063;52.084;5.414;2022-08-14T12:57:07;31.60;70.30
63897;DHT22;50063;52.084;5.414;2022-08-14T12:59:35;31.80;69.00
63897;DHT22;50063;52.084;5.414;2022-08-14T13:02:18;32.00;68.80
63897;DHT22;50063;52.084;5.414;2022-08-14T13:04:53;32.20;69.00
63897;DHT22;50063;52.084;5.414;2022-08-14T13:07:20;32.60;69.10
63897;DHT22;50063;52.084;5.414;2022-08-14T13:09:53;33.00;68.90
63897;DHT22;50063;52.084;5.414;2022-08-14T13:12:20;33.50;66.60
63897;DHT22;50063;52.084;5.414;2022-08-14T13:15:03;33.90;67.20
63897;DHT22;50063;52.084;5.414;2022-08-14T13:17:39;34.40;64.30
63897;DHT22;50063;52.084;5.414;2022-08-14T13:20:07;34.80;67.80
63897;DHT22;50063;52.084;5.414;2022-08-14T13:22:49;35.30;66.90
63897;DHT22;50063;52.084;5.414;2022-08-14T13:25:19;35.90;66.60
63897;DHT22;50063;52.084;5.414;2022-08-14T13:27:48;36.50;68.20
63897;DHT22;50063;52.084;5.414;2022-08-14T13:30:20;36.70;65.60
63897;DHT22;50063;52.084;5.414;2022-08-14T13:32:50;36.90;63.10
63897;DHT22;50063;52.084;5.414;2022-08-14T13:35:18;37.10;60.70
63897;DHT22;50063;52.084;5.414;2022-08-14T13:37:45;37.30;61.40
63897;DHT22;50063;52.084;5.414;2022-08-14T13:40:18;38.00;64.40
63897;DHT22;50063;52.084;5.414;2022-08-14T13:42:47;38.30;60.70
63897;DHT22;50063;52.084;5.414;2022-08-14T13:45:18;38.50;61.40
63897;DHT22;50063;52.084;5.414;2022-08-14T13:47:48;38.60;59.50
63897;DHT22;50063;52.084;5.414;2022-08-14T13:50:16;38.40;62.30
63897;DHT22;50063;52.084;5.414;2022-08-14T13:52:47;38.70;61.70
63897;DHT22;50063;52.084;5.414;2022-08-14T13:55:21;38.30;57.70
63897;DHT22;50063;52.084;5.414;2022-08-14T13:57:48;37.70;56.10
63897;DHT22;50063;52.084;5.414;2022-08-14T14:00:31;38.40;59.60
63897;DHT22;50063;52.084;5.414;2022-08-14T14:03:20;38.90;59.10
63897;DHT22;50063;52.084;5.414;2022-08-14T14:05:48;39.40;58.90
63897;DHT22;50063;52.084;5.414;2022-08-14T14:08:20;39.60;56.00
63897;DHT22;50063;52.084;5.414;2022-08-14T14:11:07;39.70;59.00
63897;DHT22;50063;52.084;5.414;2022-08-14T14:13:35;40.50;59.10
63897;DHT22;50063;52.084;5.414;2022-08-14T14:16:02;40.80;55.30
63897;DHT22;50063;52.084;5.414;2022-08-14T14:18:31;41.40;59.40
63897;DHT22;50063;52.084;5.414;2022-08-14T14:21:01;41.90;57.20
63897;DHT22;50063;52.084;5.414;2022-08-14T14:23:28;41.50;56.40
63897;DHT22;50063;52.084;5.414;2022-08-14T14:25:55;41.20;53.10
63897;DHT22;50063;52.084;5.414;2022-08-14T14:28:24;41.60;56.00
63897;DHT22;50063;52.084;5.414;2022-08-14T14:30:55;41.50;55.40
63897;DHT22;50063;52.084;5.414;2022-08-14T14:33:26;41.80;56.10
63897;DHT22;50063;52.084;5.414;2022-08-14T14:36:15;41.00;54.80
63897;DHT22;50063;52.084;5.414;2022-08-14T14:38:51;40.70;55.80
63897;DHT22;50063;52.084;5.414;2022-08-14T14:41:18;40.50;55.70
63897;DHT22;50063;52.084;5.414;2022-08-14T14:43:47;40.20;55.30
63897;DHT22;50063;52.084;5.414;2022-08-14T14:46:17;40.50;55.00
63897;DHT22;50063;52.084;5.414;2022-08-14T14:48:44;41.00;56.00
63897;DHT22;50063;52.084;5.414;2022-08-14T14:51:20;41.20;54.20
63897;DHT22;50063;52.084;5.414;2022-08-14T14:53:47;41.20;54.70
63897;DHT22;50063;52.084;5.414;2022-08-14T14:56:13;41.80;54.70
63897;DHT22;50063;52.084;5.414;2022-08-14T14:59:00;42.30;57.10
63897;DHT22;50063;52.084;5.414;2022-08-14T15:01:26;42.30;54.80
63897;DHT22;50063;52.084;5.414;2022-08-14T15:03:54;42.70;54.60
63897;DHT22;50063;52.084;5.414;2022-08-14T15:06:24;43.30;55.30
63897;DHT22;50063;52.084;5.414;2022-08-14T15:08:56;42.70;52.00
63897;DHT22;50063;52.084;5.414;2022-08-14T15:11:25;41.60;54.80
63897;DHT22;50063;52.084;5.414;2022-08-14T15:13:57;41.10;54.10
63897;DHT22;50063;52.084;5.414;2022-08-14T15:16:26;40.50;53.80
63897;DHT22;50063;52.084;5.414;2022-08-14T15:18:53;40.10;54.20
63897;DHT22;50063;52.084;5.414;2022-08-14T15:21:19;39.80;53.60
63897;DHT22;50063;52.084;5.414;2022-08-14T15:23:46;40.10;51.80
63897;DHT22;50063;52.084;5.414;2022-08-14T15:26:14;39.90;52.40
63897;DHT22;50063;52.084;5.414;2022-08-14T15:28:58;39.70;54.30
63897;DHT22;50063;52.084;5.414;2022-08-14T15:31:30;39.90;53.60
63897;DHT22;50063;52.084;5.414;2022-08-14T15:33:57;39.80;53.90
63897;DHT22;50063;52.084;5.414;2022-08-14T15:37:04;40.10;53.50
63897;DHT22;50063;52.084;5.414;2022-08-14T15:39:34;40.80;53.80
63897;DHT22;50063;52.084;5.414;2022-08-14T15:42:04;40.80;53.10
63897;DHT22;50063;52.084;5.414;2022-08-14T15:44:46;40.60;52.00
63897;DHT22;50063;52.084;5.414;2022-08-14T15:47:24;39.90;51.70
63897;DHT22;50063;52.084;5.414;2022-08-14T15:49:54;39.60;52.40
63897;DHT22;50063;52.084;5.414;2022-08-14T15:52:25;39.80;52.80
63897;DHT22;50063;52.084;5.414;2022-08-14T15:55:04;39.90;53.00
63897;DHT22;50063;52.084;5.414;2022-08-14T15:57:32;40.30;52.00
63897;DHT22;50063;52.084;5.414;2022-08-14T15:59:59;40.10;53.30
63897;DHT22;50063;52.084;5.414;2022-08-14T16:03:04;39.60;51.50
63897;DHT22;50063;52.084;5.414;2022-08-14T16:05:35;39.20;52.10
63897;DHT22;50063;52.084;5.414;2022-08-14T16:08:07;39.20;53.00
63897;DHT22;50063;52.084;5.414;2022-08-14T16:10:54;39.40;53.70
63897;DHT22;50063;52.084;5.414;2022-08-14T16:13:20;39.30;53.10
63897;DHT22;50063;52.084;5.414;2022-08-14T16:16:14;39.10;52.70
63897;DHT22;50063;52.084;5.414;2022-08-14T16:19:05;39.10;52.20
63897;DHT22;50063;52.084;5.414;2022-08-14T16:21:37;39.20;53.40